createdAt,value
2023-05-07T00:02:20.297Z,2.20
2023-05-07T00:04:48.302Z,2.23
2023-05-07T00:07:16.242Z,2.20
2023-05-07T00:09:44.384Z,2.85
2023-05-07T00:12:12.175Z,2.37
2023-05-07T00:14:39.835Z,2.70
2023-05-07T00:17:07.284Z,2.47
2023-05-07T00:19:35.103Z,2.83
2023-05-07T00:22:02.574Z,2.87
2023-05-07T00:24:30.355Z,3.10
2023-05-07T00:26:59.161Z,3.10
2023-05-07T00:29:27.111Z,3.00
2023-05-07T00:31:55.904Z,3.17
2023-05-07T00:34:24.180Z,3.90
2023-05-07T00:36:51.930Z,3.12
2023-05-07T00:39:19.708Z,3.45
2023-05-07T00:41:48.269Z,3.20
2023-05-07T00:44:16.423Z,3.12
2023-05-07T00:46:44.338Z,2.90
2023-05-07T00:49:12.469Z,3.08
2023-05-07T00:51:40.460Z,3.03
2023-05-07T00:54:09.071Z,3.23
2023-05-07T00:56:37.422Z,3.28
2023-05-07T00:59:05.168Z,3.72
2023-05-07T01:01:33.034Z,3.47
2023-05-07T01:04:01.051Z,3.60
2023-05-07T01:06:30.643Z,3.37
2023-05-07T01:08:59.122Z,3.17
2023-05-07T01:11:27.608Z,3.70
2023-05-07T01:13:55.854Z,3.17
2023-05-07T01:16:23.674Z,3.10
2023-05-07T01:18:51.778Z,2.87
2023-05-07T01:21:19.501Z,3.28
2023-05-07T01:23:47.813Z,3.50
2023-05-07T01:26:16.129Z,2.92
2023-05-07T01:28:45.924Z,2.80
2023-05-07T01:31:15.177Z,2.90
2023-05-07T01:33:44.952Z,2.45
2023-05-07T01:36:13.696Z,2.42
2023-05-07T01:38:42.297Z,2.78
2023-05-07T01:41:10.160Z,2.78
2023-05-07T01:43:37.972Z,2.47
2023-05-07T01:46:05.858Z,2.92
2023-05-07T01:48:33.862Z,2.47
2023-05-07T01:51:02.063Z,2.60
2023-05-07T01:53:29.564Z,2.65
2023-05-07T01:55:57.437Z,2.60
2023-05-07T01:58:25.517Z,2.80
2023-05-07T02:00:53.469Z,2.50
2023-05-07T02:03:21.839Z,2.10
2023-05-07T02:05:50.286Z,2.62
2023-05-07T02:08:19.325Z,2.50
2023-05-07T02:10:47.471Z,2.30
2023-05-07T02:13:15.267Z,2.30
2023-05-07T02:15:42.812Z,2.70
2023-05-07T02:18:10.967Z,2.20
2023-05-07T02:20:38.831Z,2.17
2023-05-07T02:23:06.420Z,2.10
2023-05-07T02:25:34.268Z,2.30
2023-05-07T02:28:01.795Z,2.25
2023-05-07T02:30:30.907Z,2.40
2023-05-07T02:32:59.094Z,2.10
2023-05-07T02:35:27.045Z,1.85
2023-05-07T02:37:54.800Z,2.33
2023-05-07T02:40:23.664Z,1.90
2023-05-07T02:42:51.178Z,2.28
2023-05-07T02:45:19.186Z,1.80
2023-05-07T02:47:47.789Z,2.25
2023-05-07T02:50:15.870Z,1.77
2023-05-07T02:52:43.895Z,1.92
2023-05-07T02:55:11.820Z,1.80
2023-05-07T02:57:39.261Z,2.27
2023-05-07T03:00:18.862Z,1.90
2023-05-07T03:02:47.696Z,2.17
2023-05-07T03:05:15.717Z,1.80
2023-05-07T03:07:46.308Z,2.03
2023-05-07T03:10:14.482Z,2.10
2023-05-07T03:12:42.747Z,2.30
2023-05-07T03:15:13.721Z,2.33
2023-05-07T03:17:41.848Z,2.60
2023-05-07T03:20:11.222Z,2.12
2023-05-07T03:22:39.281Z,2.07
2023-05-07T03:25:07.935Z,2.70
2023-05-07T03:27:35.644Z,2.47
2023-05-07T03:30:03.689Z,2.25
2023-05-07T03:32:31.720Z,2.17
2023-05-07T03:34:59.445Z,2.20
2023-05-07T03:37:27.318Z,2.10
2023-05-07T03:39:55.198Z,2.33
2023-05-07T03:42:22.719Z,1.90
2023-05-07T03:44:50.679Z,1.83
2023-05-07T03:47:18.882Z,1.70
2023-05-07T03:49:46.631Z,1.92
2023-05-07T03:52:14.587Z,1.62
2023-05-07T03:54:45.047Z,1.70
2023-05-07T03:57:12.870Z,1.80
2023-05-07T03:59:40.915Z,1.93
2023-05-07T04:02:09.145Z,2.08
2023-05-07T04:04:36.945Z,1.98
2023-05-07T04:07:05.357Z,1.87
2023-05-07T04:09:34.274Z,1.50
2023-05-07T04:12:02.410Z,2.03
2023-05-07T04:14:33.111Z,1.50
2023-05-07T04:17:01.136Z,1.92
2023-05-07T04:19:29.460Z,1.30
2023-05-07T04:21:57.083Z,1.42
2023-05-07T04:24:25.111Z,1.40
2023-05-07T04:26:53.724Z,1.50
2023-05-07T04:29:22.100Z,1.80
2023-05-07T04:31:49.766Z,1.70
2023-05-07T04:34:17.677Z,1.60
2023-05-07T04:36:45.293Z,1.50
2023-05-07T04:39:13.969Z,1.62
2023-05-07T04:41:42.325Z,1.45
2023-05-07T04:44:10.331Z,1.50
2023-05-07T04:46:37.958Z,1.50
2023-05-07T04:49:06.850Z,1.33
2023-05-07T04:51:35.738Z,1.40
2023-05-07T04:54:03.523Z,1.30
2023-05-07T04:56:31.724Z,1.42
2023-05-07T04:58:59.538Z,1.70
2023-05-07T05:01:27.255Z,1.30
2023-05-07T05:03:55.624Z,2.05
2023-05-07T05:06:23.146Z,1.77
2023-05-07T05:08:51.267Z,1.80
2023-05-07T05:11:19.315Z,1.80
2023-05-07T05:13:49.172Z,1.80
2023-05-07T05:16:17.170Z,1.45
2023-05-07T05:18:45.307Z,1.90
2023-05-07T05:21:13.331Z,2.05
2023-05-07T05:23:41.326Z,1.80
2023-05-07T05:26:09.730Z,2.33
2023-05-07T05:28:37.575Z,2.85
2023-05-07T05:31:06.251Z,2.72
2023-05-07T05:33:34.558Z,3.08
2023-05-07T05:36:02.942Z,3.22
2023-05-07T05:38:31.083Z,3.60
2023-05-07T05:40:59.139Z,4.78
2023-05-07T05:43:26.671Z,5.68
2023-05-07T05:45:54.421Z,6.15
2023-05-07T05:48:22.578Z,5.62
2023-05-07T05:50:50.781Z,5.70
2023-05-07T05:53:19.567Z,5.30
2023-05-07T05:55:47.545Z,5.20
2023-05-07T05:58:16.308Z,4.37
2023-05-07T06:00:46.306Z,3.90
2023-05-07T06:03:14.667Z,4.17
2023-05-07T06:05:43.524Z,4.22
2023-05-07T06:08:11.525Z,4.30
2023-05-07T06:10:39.430Z,3.87
2023-05-07T06:13:08.568Z,3.50
2023-05-07T06:15:37.810Z,3.17
2023-05-07T06:18:06.635Z,4.12
2023-05-07T06:20:34.281Z,4.47
2023-05-07T06:23:03.392Z,3.58
2023-05-07T06:25:32.698Z,3.72
2023-05-07T06:28:03.031Z,4.03
2023-05-07T06:30:31.630Z,2.67
2023-05-07T06:32:59.865Z,2.10
2023-05-07T06:35:27.674Z,1.98
2023-05-07T06:37:55.600Z,2.50
2023-05-07T06:40:23.614Z,2.83
2023-05-07T06:42:51.660Z,3.12
2023-05-07T06:45:20.976Z,3.90
2023-05-07T06:47:48.837Z,4.15
2023-05-07T06:50:17.827Z,3.62
2023-05-07T06:52:46.033Z,3.13
2023-05-07T06:55:13.622Z,2.87
2023-05-07T06:57:44.237Z,2.85
2023-05-07T07:00:12.796Z,2.70
2023-05-07T07:02:41.740Z,3.10
2023-05-07T07:05:10.279Z,2.70
2023-05-07T07:07:38.793Z,3.20
2023-05-07T07:10:07.042Z,4.10
2023-05-07T07:12:35.769Z,3.25
2023-05-07T07:15:05.134Z,3.20
2023-05-07T07:17:32.870Z,3.50
2023-05-07T07:20:01.021Z,4.03
2023-05-07T07:22:30.665Z,4.68
2023-05-07T07:24:58.258Z,4.18
2023-05-07T07:27:26.020Z,5.07
2023-05-07T07:29:53.876Z,4.57
2023-05-07T07:32:21.809Z,6.37
2023-05-07T07:34:50.080Z,6.20
2023-05-07T07:37:17.982Z,6.40
2023-05-07T07:39:46.191Z,6.70
2023-05-07T07:42:14.679Z,7.00
2023-05-07T07:44:42.492Z,6.85
2023-05-07T07:47:10.526Z,7.07
2023-05-07T07:49:38.780Z,6.95
2023-05-07T07:52:07.038Z,7.90
2023-05-07T07:54:35.280Z,7.10
2023-05-07T07:57:03.344Z,8.30
2023-05-07T07:59:32.117Z,8.23
2023-05-07T08:01:59.934Z,8.55
2023-05-07T08:04:28.478Z,8.13
2023-05-07T08:06:57.108Z,8.83
2023-05-07T08:09:25.020Z,8.20
2023-05-07T08:11:53.241Z,9.85
2023-05-07T08:14:21.154Z,9.02
2023-05-07T08:16:49.084Z,9.15
2023-05-07T08:19:18.195Z,8.50
2023-05-07T08:21:46.104Z,8.68
2023-05-07T08:24:13.683Z,8.10
2023-05-07T08:26:41.977Z,8.40
2023-05-07T08:29:13.123Z,8.10
2023-05-07T08:31:40.994Z,8.27
2023-05-07T08:34:10.845Z,7.45
2023-05-07T08:36:38.874Z,7.25
2023-05-07T08:39:06.795Z,5.55
2023-05-07T08:41:35.810Z,7.60
2023-05-07T08:44:05.007Z,7.67
2023-05-07T08:46:33.576Z,7.32
2023-05-07T08:49:01.546Z,7.05
2023-05-07T08:51:29.244Z,8.00
2023-05-07T08:53:57.554Z,6.37
2023-05-07T08:56:26.131Z,6.50
2023-05-07T08:58:59.733Z,6.80
2023-05-07T09:01:28.535Z,6.70
2023-05-07T09:03:56.272Z,7.75
2023-05-07T09:06:26.140Z,7.90
2023-05-07T09:08:55.700Z,7.90
2023-05-07T09:11:24.773Z,6.47
2023-05-07T09:13:57.148Z,7.47
2023-05-07T09:16:27.512Z,6.55
2023-05-07T09:18:59.599Z,6.87
2023-05-07T09:21:28.256Z,7.30
2023-05-07T09:23:56.788Z,5.65
2023-05-07T09:26:25.945Z,5.75
2023-05-07T09:28:56.273Z,6.50
2023-05-07T09:31:26.167Z,7.00
2023-05-07T09:33:56.981Z,6.30
2023-05-07T09:36:28.096Z,7.03
2023-05-07T09:38:57.600Z,6.60
2023-05-07T09:41:25.950Z,6.70
2023-05-07T09:43:55.387Z,7.10
2023-05-07T09:46:31.001Z,6.50
2023-05-07T09:49:02.156Z,7.05
2023-05-07T09:51:34.291Z,6.60
2023-05-07T09:54:04.428Z,6.55
2023-05-07T09:56:35.468Z,6.00
2023-05-07T09:59:04.236Z,5.80
2023-05-07T10:01:33.181Z,6.68
2023-05-07T10:04:03.450Z,6.05
2023-05-07T10:06:31.399Z,6.62
2023-05-07T10:09:00.511Z,6.12
2023-05-07T10:11:31.600Z,5.30
2023-05-07T10:14:00.536Z,4.50
2023-05-07T10:16:37.493Z,4.00
2023-05-07T10:19:06.880Z,3.62
2023-05-07T10:21:37.598Z,4.75
2023-05-07T10:24:20.667Z,3.63
2023-05-07T10:26:51.555Z,3.62
2023-05-07T10:29:40.400Z,3.58
2023-05-07T10:32:27.097Z,3.08
2023-05-07T10:34:56.378Z,3.00
2023-05-07T10:37:25.243Z,3.40
2023-05-07T10:39:53.837Z,2.95
2023-05-07T10:42:23.047Z,3.62
2023-05-07T10:44:51.402Z,2.80
2023-05-07T10:47:19.989Z,3.37
2023-05-07T10:50:08.070Z,3.33
2023-05-07T10:52:36.900Z,3.70
2023-05-07T10:55:21.031Z,3.50
2023-05-07T10:57:49.162Z,3.10
2023-05-07T11:00:38.506Z,3.20
2023-05-07T11:03:08.604Z,2.57
2023-05-07T11:05:40.784Z,2.80
2023-05-07T11:08:10.264Z,3.15
2023-05-07T11:11:01.203Z,3.35
2023-05-07T11:13:47.615Z,2.95
2023-05-07T11:16:28.169Z,2.70
2023-05-07T11:18:57.289Z,3.60
2023-05-07T11:21:42.706Z,3.33
2023-05-07T11:24:11.888Z,2.70
2023-05-07T11:26:43.530Z,2.60
2023-05-07T11:29:15.357Z,2.77
2023-05-07T11:31:43.540Z,2.90
2023-05-07T11:34:12.368Z,2.70
2023-05-07T11:36:46.203Z,3.30
2023-05-07T11:39:28.251Z,3.67
2023-05-07T11:41:56.314Z,3.10
2023-05-07T11:44:24.333Z,3.50
2023-05-07T11:46:51.888Z,3.08
2023-05-07T11:49:19.748Z,2.90
2023-05-07T11:51:47.944Z,3.53
2023-05-07T11:54:17.097Z,3.20
2023-05-07T11:56:46.027Z,3.20
2023-05-07T11:59:18.492Z,3.30
2023-05-07T12:01:49.163Z,3.37
2023-05-07T12:04:22.018Z,2.75
2023-05-07T12:06:51.944Z,3.17
2023-05-07T12:09:19.815Z,2.80
2023-05-07T12:11:47.917Z,3.30
2023-05-07T12:14:17.036Z,3.28
2023-05-07T12:16:46.193Z,3.40
2023-05-07T12:19:16.709Z,2.73
2023-05-07T12:21:44.626Z,2.50
2023-05-07T12:24:17.808Z,2.58
2023-05-07T12:26:48.295Z,2.87
2023-05-07T12:29:16.440Z,2.67
2023-05-07T12:31:44.246Z,2.70
2023-05-07T12:34:17.524Z,3.10
2023-05-07T12:36:45.334Z,3.60
2023-05-07T12:39:12.857Z,3.12
2023-05-07T12:41:57.336Z,3.33
2023-05-07T12:44:31.036Z,3.43
2023-05-07T12:46:59.068Z,3.37
2023-05-07T12:49:27.014Z,3.28
2023-05-07T12:51:54.908Z,2.95
2023-05-07T12:54:32.976Z,3.75
2023-05-07T12:57:06.569Z,2.90
2023-05-07T12:59:39.056Z,3.00
2023-05-07T13:02:07.368Z,3.05
2023-05-07T13:04:43.319Z,3.05
2023-05-07T13:07:13.821Z,3.08
2023-05-07T13:09:41.695Z,3.20
2023-05-07T13:12:09.483Z,3.20
2023-05-07T13:14:37.562Z,3.25
2023-05-07T13:17:13.063Z,3.47
2023-05-07T13:19:40.929Z,3.40
2023-05-07T13:22:08.695Z,3.40
2023-05-07T13:24:36.402Z,3.40
2023-05-07T13:27:08.112Z,2.80
2023-05-07T13:29:35.688Z,2.60
2023-05-07T13:32:03.424Z,2.60
2023-05-07T13:34:31.375Z,2.93
2023-05-07T13:36:58.888Z,2.95
2023-05-07T13:39:26.587Z,3.03
2023-05-07T13:41:54.582Z,3.00
2023-05-07T13:44:22.313Z,2.85
2023-05-07T13:46:49.979Z,2.87
2023-05-07T13:49:18.022Z,2.58
2023-05-07T13:51:45.589Z,2.92
2023-05-07T13:54:13.094Z,2.40
2023-05-07T13:56:43.027Z,3.00
2023-05-07T13:59:13.478Z,2.70
2023-05-07T14:01:41.953Z,2.70
2023-05-07T14:04:10.867Z,3.25
2023-05-07T14:06:41.102Z,2.80
2023-05-07T14:09:08.696Z,3.53
2023-05-07T14:11:36.606Z,3.20
2023-05-07T14:14:04.185Z,3.30
2023-05-07T14:16:31.942Z,3.35
2023-05-07T14:18:59.858Z,3.05
2023-05-07T14:21:27.396Z,3.60
2023-05-07T14:23:57.587Z,3.90
2023-05-07T14:26:25.538Z,3.97
2023-05-07T14:28:55.941Z,4.28
2023-05-07T14:31:24.337Z,4.03
2023-05-07T14:33:52.940Z,3.50
2023-05-07T14:36:26.969Z,3.10
2023-05-07T14:38:55.801Z,3.80
2023-05-07T14:41:23.706Z,4.43
2023-05-07T14:43:51.605Z,3.70
2023-05-07T14:46:20.910Z,3.97
2023-05-07T14:48:48.615Z,4.00
2023-05-07T14:51:16.393Z,3.80
2023-05-07T14:53:46.511Z,3.70
2023-05-07T14:56:14.148Z,2.97
2023-05-07T14:58:41.907Z,3.60
2023-05-07T15:01:09.998Z,2.90
2023-05-07T15:03:38.463Z,3.05
2023-05-07T15:06:06.266Z,2.80
2023-05-07T15:08:36.785Z,2.40
2023-05-07T15:11:04.294Z,2.87
2023-05-07T15:13:32.004Z,2.47
2023-05-07T15:15:59.917Z,2.35
2023-05-07T15:18:27.514Z,2.00
2023-05-07T15:20:56.818Z,2.20
2023-05-07T15:23:24.914Z,2.37
2023-05-07T15:25:55.573Z,2.47
2023-05-07T15:28:23.198Z,1.65
2023-05-07T15:30:51.246Z,2.00
2023-05-07T15:33:18.863Z,1.70
2023-05-07T15:35:46.354Z,1.98
2023-05-07T15:38:14.797Z,1.50
2023-05-07T15:40:42.973Z,1.60
2023-05-07T15:43:12.223Z,1.80
2023-05-07T15:45:41.924Z,1.92
2023-05-07T15:48:10.766Z,1.50
2023-05-07T15:50:38.802Z,1.60
2023-05-07T15:53:07.150Z,1.10
2023-05-07T15:55:34.729Z,1.00
2023-05-07T15:58:04.652Z,1.55
2023-05-07T16:00:32.660Z,1.48
2023-05-07T16:03:01.097Z,1.20
2023-05-07T16:05:28.698Z,1.50
2023-05-07T16:07:57.275Z,1.52
2023-05-07T16:10:25.063Z,1.33
2023-05-07T16:12:52.761Z,1.55
2023-05-07T16:15:20.382Z,1.50
2023-05-07T16:17:49.777Z,1.15
2023-05-07T16:20:20.013Z,1.48
2023-05-07T16:22:50.082Z,1.35
2023-05-07T16:25:17.628Z,1.50
2023-05-07T16:27:45.599Z,1.53
2023-05-07T16:30:13.654Z,1.40
2023-05-07T16:32:41.160Z,1.73
2023-05-07T16:35:09.182Z,1.70
2023-05-07T16:37:42.587Z,1.70
2023-05-07T16:40:10.685Z,1.70
2023-05-07T16:42:39.384Z,2.10
2023-05-07T16:45:08.423Z,2.00
2023-05-07T16:47:36.159Z,1.80
2023-05-07T16:50:05.878Z,1.55
2023-05-07T16:52:33.839Z,1.80
2023-05-07T16:55:01.690Z,1.70
2023-05-07T16:57:29.848Z,2.00
2023-05-07T16:59:59.069Z,1.50
2023-05-07T17:02:28.402Z,1.40
2023-05-07T17:04:56.073Z,1.60
2023-05-07T17:07:26.916Z,2.05
2023-05-07T17:09:54.591Z,1.73
2023-05-07T17:12:23.007Z,1.65
2023-05-07T17:14:50.978Z,1.65
2023-05-07T17:17:18.543Z,1.83
2023-05-07T17:19:49.176Z,1.40
2023-05-07T17:22:17.052Z,1.30
2023-05-07T17:24:45.204Z,1.40
2023-05-07T17:27:12.747Z,1.55
2023-05-07T17:29:40.888Z,1.37
2023-05-07T17:32:08.916Z,1.23
2023-05-07T17:34:36.920Z,1.75
2023-05-07T17:37:07.944Z,1.58
2023-05-07T17:39:35.611Z,1.80
2023-05-07T17:42:09.021Z,1.77
2023-05-07T17:44:36.803Z,1.75
2023-05-07T17:47:04.418Z,1.50
2023-05-07T17:49:31.961Z,1.80
2023-05-07T17:51:59.763Z,1.40
2023-05-07T17:54:28.044Z,1.80
2023-05-07T17:56:55.830Z,1.70
2023-05-07T17:59:24.083Z,1.90
2023-05-07T18:01:51.771Z,1.90
2023-05-07T18:04:21.627Z,2.12
2023-05-07T18:06:49.221Z,1.87
2023-05-07T18:09:16.716Z,2.67
2023-05-07T18:11:44.851Z,1.98
2023-05-07T18:14:12.427Z,2.30
2023-05-07T18:16:40.106Z,2.20
2023-05-07T18:19:08.090Z,2.47
2023-05-07T18:21:35.798Z,2.30
2023-05-07T18:24:03.354Z,2.60
2023-05-07T18:26:31.131Z,2.47
2023-05-07T18:28:58.721Z,2.55
2023-05-07T18:31:26.490Z,2.20
2023-05-07T18:33:56.011Z,2.33
2023-05-07T18:36:25.296Z,2.75
2023-05-07T18:38:53.619Z,2.20
2023-05-07T18:41:21.651Z,2.45
2023-05-07T18:43:49.307Z,2.30
2023-05-07T18:46:17.023Z,2.60
2023-05-07T18:48:45.864Z,2.28
2023-05-07T18:51:13.712Z,2.40
2023-05-07T18:53:41.867Z,2.72
2023-05-07T18:56:10.281Z,2.50
2023-05-07T18:58:38.256Z,2.70
2023-05-07T19:01:10.827Z,3.20
2023-05-07T19:03:39.510Z,3.37
2023-05-07T19:06:07.623Z,2.78
2023-05-07T19:08:35.447Z,3.17
2023-05-07T19:11:07.297Z,3.00
2023-05-07T19:13:35.292Z,3.37
2023-05-07T19:16:04.485Z,3.70
2023-05-07T19:18:36.431Z,3.60
2023-05-07T19:21:07.229Z,3.60
2023-05-07T19:23:37.022Z,3.87
2023-05-07T19:26:21.302Z,4.15
2023-05-07T19:29:01.652Z,4.22
2023-05-07T19:31:41.515Z,4.22
2023-05-07T19:34:14.088Z,4.30
2023-05-07T19:36:42.290Z,4.35
2023-05-07T19:39:11.553Z,4.53
2023-05-07T19:41:41.861Z,4.60
2023-05-07T19:44:11.444Z,4.07
2023-05-07T19:46:43.216Z,4.00
2023-05-07T19:49:13.059Z,3.95
2023-05-07T19:51:44.274Z,4.05
2023-05-07T19:54:12.162Z,3.65
2023-05-07T19:56:49.082Z,4.20
2023-05-07T19:59:22.786Z,3.93
2023-05-07T20:01:50.416Z,4.37
2023-05-07T20:04:18.352Z,3.90
2023-05-07T20:06:45.977Z,3.80
2023-05-07T20:09:13.717Z,3.85
2023-05-07T20:11:41.504Z,3.73
2023-05-07T20:14:11.695Z,3.87
2023-05-07T20:16:39.990Z,3.80
2023-05-07T20:19:07.897Z,3.87
2023-05-07T20:21:35.822Z,4.05
2023-05-07T20:24:03.465Z,3.30
2023-05-07T20:26:31.280Z,3.83
2023-05-07T20:28:58.890Z,3.90
2023-05-07T20:31:27.140Z,3.78
2023-05-07T20:33:54.966Z,3.58
2023-05-07T20:36:25.152Z,4.33
2023-05-07T20:38:52.821Z,3.78
2023-05-07T20:41:25.115Z,3.67
2023-05-07T20:43:57.093Z,3.72
2023-05-07T20:46:25.638Z,3.80
2023-05-07T20:48:53.387Z,3.67
2023-05-07T20:51:21.257Z,4.43
2023-05-07T20:53:49.065Z,3.37
2023-05-07T20:56:16.695Z,3.85
2023-05-07T20:58:44.631Z,3.62
2023-05-07T21:01:12.526Z,3.60
2023-05-07T21:03:40.516Z,4.35
2023-05-07T21:06:08.068Z,3.75
2023-05-07T21:08:35.854Z,3.50
2023-05-07T21:11:03.978Z,3.70
2023-05-07T21:13:31.722Z,3.60
2023-05-07T21:15:59.493Z,3.80
2023-05-07T21:18:29.021Z,3.53
2023-05-07T21:20:57.296Z,3.45
2023-05-07T21:23:25.026Z,3.97
2023-05-07T21:25:52.702Z,3.87
2023-05-07T21:28:20.230Z,3.90
2023-05-07T21:30:47.960Z,4.25
2023-05-07T21:33:15.826Z,3.72
2023-05-07T21:35:43.410Z,3.92
2023-05-07T21:38:12.669Z,3.80
2023-05-07T21:40:40.545Z,3.95
2023-05-07T21:43:08.344Z,3.47
2023-05-07T21:45:36.247Z,3.25
2023-05-07T21:48:04.102Z,3.70
2023-05-07T21:50:32.368Z,3.17
2023-05-07T21:53:00.285Z,3.47
2023-05-07T21:55:27.738Z,3.00
2023-05-07T21:58:04.888Z,3.30
2023-05-07T22:00:34.115Z,3.58
2023-05-07T22:03:02.084Z,2.63
2023-05-07T22:05:29.528Z,2.65
2023-05-07T22:07:57.150Z,2.60
2023-05-07T22:10:25.178Z,2.70
2023-05-07T22:12:52.920Z,2.87
2023-05-07T22:15:20.649Z,2.60
2023-05-07T22:17:48.564Z,2.17
2023-05-07T22:20:16.347Z,2.78
2023-05-07T22:22:52.768Z,2.72
2023-05-07T22:25:22.009Z,2.37
2023-05-07T22:27:50.242Z,2.33
2023-05-07T22:30:18.090Z,2.55
2023-05-07T22:32:46.107Z,2.15
2023-05-07T22:35:13.655Z,2.50
2023-05-07T22:37:41.117Z,2.37
2023-05-07T22:40:09.460Z,2.50
2023-05-07T22:42:37.186Z,2.50
2023-05-07T22:45:05.163Z,2.45
2023-05-07T22:47:33.036Z,2.37
2023-05-07T22:50:01.031Z,2.45
2023-05-07T22:52:28.601Z,2.37
2023-05-07T22:54:56.686Z,2.67
2023-05-07T22:57:24.144Z,2.40
2023-05-07T22:59:55.891Z,2.40
2023-05-07T23:02:24.148Z,2.33
2023-05-07T23:04:51.813Z,2.10
2023-05-07T23:07:19.269Z,2.37
2023-05-07T23:09:47.116Z,2.60
2023-05-07T23:12:14.680Z,2.05
2023-05-07T23:14:42.217Z,2.75
2023-05-07T23:17:10.310Z,3.10
2023-05-07T23:19:38.254Z,2.67
2023-05-07T23:22:05.861Z,2.25
2023-05-07T23:24:34.858Z,2.62
2023-05-07T23:27:05.986Z,2.72
2023-05-07T23:29:35.230Z,2.50
2023-05-07T23:32:02.913Z,2.40
2023-05-07T23:34:30.468Z,3.00
2023-05-07T23:36:58.535Z,2.47
2023-05-07T23:39:26.101Z,2.33
2023-05-07T23:41:53.520Z,2.50
2023-05-07T23:44:21.502Z,2.37
2023-05-07T23:46:49.108Z,2.50
2023-05-07T23:49:16.605Z,2.83
2023-05-07T23:51:44.458Z,2.70
2023-05-07T23:54:12.031Z,3.00
2023-05-07T23:56:39.546Z,2.67
2023-05-07T23:59:07.380Z,2.80
